Randolph, MA (02368)

1:27 PM EDT on September 04, 2015 (GMT -0400)
North Randolph | | Change Station
CLOSE
Current Station
Personal Weather Station
Location: Randolph, MA
Elevation: 225 ft
Nearby Weather Stations

Elev 225 ft 42.20 °N, 71.06 °W | Updated 2 minutes ago

Overcast
Overcast
67.2 °F
Feels Like 67.2 °F
N
6.0
Wind Variable Wind from East
Gusts 12.0 mph

Today
High -- | Low -- °F
--% Chance of Precip.
Yesterday
High -- | Low -- °F
Precip. -- in
6:12 AM 7:13 PM
Waning Gibbous, 57% visible
Pressure 30.19 in
Visibility 10.0 miles
Clouds Overcast 4400 ft
Dew Point 61 °F
Humidity 79%
Rainfall 0.00 in
Snow Depth Not available.
UV 3 out of 12
Pollen 8.50 out of 12
Air Quality Not available.
Flu Activity Not available.
METAR KOWD 041653Z 06012KT 10SM OVC044 21/15 A3019 RMK AO2 SLP223 T02110150
Pressure 30.19 in
Visibility 10.0 miles
Clouds Overcast 4400 ft
Dew Point 61 °F
Humidity 79%
Rainfall 0.00 in
Snow Depth Not available.
UV 3 out of 12
Pollen 8.50 out of 12
Air Quality Not available.
Flu Activity Not available.
METAR KOWD 041653Z 06012KT 10SM OVC044 21/15 A3019 RMK AO2 SLP223 T02110150

10-Day Weather Forecast

×

Almanac

Astronomy

Sep. 04, 2015 Rise Set
Actual Time
Civil Twilight
Nautical Twilight
Astronomical Twilight
Moon
Length of Visible Light
Length of Day
Tomorrow will be .
, % of the Moon is Illuminated

Today's Extremes

State Highs State Lows

Community

WunderPhotos

Upload Photos

1,852,237 photos uploaded!

WunderBlogs® & News

Nearby

Air Quality

  Air Quality AQ Index Pollutant
Not available.

Snow Depth

Station Depth Elevation

Earthquake Activity

City Distance Mag. Time & Date
Minimum magnitude displayed is 2.5.

Coastal Water Temperatures

Place Temperature

Stations

Nearby Weather Stations

Station Location Temp. Windchill Dew Point Humidity Wind Precip. Elev Updated Type